sensor_id;sensor_type;location;lat;lon;timestamp;P1;durP1;ratioP1;P2;durP2;ratioP2
28455;SDS011;15682;56.742;38.866;2022-12-11T00:01:33;13.5;;;6.2;;
28455;SDS011;15682;56.742;38.866;2022-12-11T00:03:33;16.5;;;6.9;;
28455;SDS011;15682;56.742;38.866;2022-12-11T00:05:33;10.6;;;6.1;;
28455;SDS011;15682;56.742;38.866;2022-12-11T00:07:33;12.2;;;6.1;;
28455;SDS011;15682;56.742;38.866;2022-12-11T00:09:33;13.6;;;6.2;;
28455;SDS011;15682;56.742;38.866;2022-12-11T00:11:32;14.3;;;6.9;;
28455;SDS011;15682;56.742;38.866;2022-12-11T00:13:32;14.8;;;6.6;;
28455;SDS011;15682;56.742;38.866;2022-12-11T00:15:32;15.8;;;6.9;;
28455;SDS011;15682;56.742;38.866;2022-12-11T00:17:32;12.7;;;7.0;;
28455;SDS011;15682;56.742;38.866;2022-12-11T00:19:32;13.9;;;6.8;;
28455;SDS011;15682;56.742;38.866;2022-12-11T00:21:32;15.4;;;6.6;;
28455;SDS011;15682;56.742;38.866;2022-12-11T00:23:33;14.0;;;6.5;;
28455;SDS011;15682;56.742;38.866;2022-12-11T00:25:32;13.7;;;6.7;;
28455;SDS011;15682;56.742;38.866;2022-12-11T00:27:32;15.0;;;7.1;;
28455;SDS011;15682;56.742;38.866;2022-12-11T00:29:31;16.1;;;7.5;;
28455;SDS011;15682;56.742;38.866;2022-12-11T00:31:31;12.3;;;6.8;;
28455;SDS011;15682;56.742;38.866;2022-12-11T00:33:31;17.2;;;7.7;;
28455;SDS011;15682;56.742;38.866;2022-12-11T00:35:31;14.5;;;7.3;;
28455;SDS011;15682;56.742;38.866;2022-12-11T00:37:31;15.6;;;7.1;;
28455;SDS011;15682;56.742;38.866;2022-12-11T00:39:31;16.0;;;7.9;;
28455;SDS011;15682;56.742;38.866;2022-12-11T00:41:31;18.2;;;8.2;;
28455;SDS011;15682;56.742;38.866;2022-12-11T00:43:31;15.7;;;7.9;;
28455;SDS011;15682;56.742;38.866;2022-12-11T00:45:34;15.9;;;7.2;;
28455;SDS011;15682;56.742;38.866;2022-12-11T00:47:30;17.8;;;8.0;;
28455;SDS011;15682;56.742;38.866;2022-12-11T00:49:30;14.1;;;7.3;;
28455;SDS011;15682;56.742;38.866;2022-12-11T00:51:30;20.5;;;7.8;;
28455;SDS011;15682;56.742;38.866;2022-12-11T00:53:30;18.1;;;7.5;;
28455;SDS011;15682;56.742;38.866;2022-12-11T00:55:30;16.1;;;7.6;;
28455;SDS011;15682;56.742;38.866;2022-12-11T00:57:30;16.1;;;7.4;;
28455;SDS011;15682;56.742;38.866;2022-12-11T00:59:30;16.5;;;7.5;;
28455;SDS011;15682;56.742;38.866;2022-12-11T01:01:30;15.2;;;7.4;;
28455;SDS011;15682;56.742;38.866;2022-12-11T01:03:29;14.9;;;7.5;;
28455;SDS011;15682;56.742;38.866;2022-12-11T01:05:29;13.5;;;7.1;;
28455;SDS011;15682;56.742;38.866;2022-12-11T01:07:29;15.9;;;7.2;;
28455;SDS011;15682;56.742;38.866;2022-12-11T01:09:29;16.3;;;7.5;;
28455;SDS011;15682;56.742;38.866;2022-12-11T01:11:29;15.1;;;7.5;;
28455;SDS011;15682;56.742;38.866;2022-12-11T01:13:29;17.1;;;7.7;;
28455;SDS011;15682;56.742;38.866;2022-12-11T01:15:29;15.8;;;7.4;;
28455;SDS011;15682;56.742;38.866;2022-12-11T01:17:29;14.4;;;7.0;;
28455;SDS011;15682;56.742;38.866;2022-12-11T01:19:28;14.6;;;7.0;;
28455;SDS011;15682;56.742;38.866;2022-12-11T01:21:28;15.7;;;6.9;;
28455;SDS011;15682;56.742;38.866;2022-12-11T01:23:28;15.3;;;7.2;;
28455;SDS011;15682;56.742;38.866;2022-12-11T01:25:28;14.6;;;6.8;;
28455;SDS011;15682;56.742;38.866;2022-12-11T01:27:28;15.0;;;6.7;;
28455;SDS011;15682;56.742;38.866;2022-12-11T01:29:28;13.6;;;7.2;;
28455;SDS011;15682;56.742;38.866;2022-12-11T01:31:28;14.5;;;6.8;;
28455;SDS011;15682;56.742;38.866;2022-12-11T01:33:28;16.2;;;7.1;;
28455;SDS011;15682;56.742;38.866;2022-12-11T01:35:28;14.8;;;7.7;;
28455;SDS011;15682;56.742;38.866;2022-12-11T01:37:27;14.8;;;6.7;;
28455;SDS011;15682;56.742;38.866;2022-12-11T01:39:27;15.8;;;7.0;;
28455;SDS011;15682;56.742;38.866;2022-12-11T01:41:27;12.6;;;6.1;;
28455;SDS011;15682;56.742;38.866;2022-12-11T01:43:27;13.1;;;6.9;;
28455;SDS011;15682;56.742;38.866;2022-12-11T01:45:30;13.1;;;6.3;;
28455;SDS011;15682;56.742;38.866;2022-12-11T01:47:27;15.2;;;6.5;;
28455;SDS011;15682;56.742;38.866;2022-12-11T01:49:27;15.1;;;6.8;;
28455;SDS011;15682;56.742;38.866;2022-12-11T01:51:27;14.1;;;6.4;;
28455;SDS011;15682;56.742;38.866;2022-12-11T01:53:27;14.0;;;6.8;;
28455;SDS011;15682;56.742;38.866;2022-12-11T01:55:26;16.0;;;6.4;;
28455;SDS011;15682;56.742;38.866;2022-12-11T01:57:26;15.2;;;7.0;;
28455;SDS011;15682;56.742;38.866;2022-12-11T01:59:27;13.4;;;7.0;;
28455;SDS011;15682;56.742;38.866;2022-12-11T02:01:27;13.6;;;6.7;;
28455;SDS011;15682;56.742;38.866;2022-12-11T02:03:26;15.7;;;6.9;;
28455;SDS011;15682;56.742;38.866;2022-12-11T02:05:26;14.2;;;6.4;;
28455;SDS011;15682;56.742;38.866;2022-12-11T02:07:26;12.6;;;6.8;;
28455;SDS011;15682;56.742;38.866;2022-12-11T02:09:26;11.7;;;6.0;;
28455;SDS011;15682;56.742;38.866;2022-12-11T02:11:26;14.9;;;6.8;;
28455;SDS011;15682;56.742;38.866;2022-12-11T02:13:27;13.2;;;6.9;;
28455;SDS011;15682;56.742;38.866;2022-12-11T02:15:28;14.0;;;6.5;;
28455;SDS011;15682;56.742;38.866;2022-12-11T02:17:27;14.4;;;7.3;;
28455;SDS011;15682;56.742;38.866;2022-12-11T02:19:30;13.0;;;6.7;;
28455;SDS011;15682;56.742;38.866;2022-12-11T02:21:25;13.2;;;6.2;;
28455;SDS011;15682;56.742;38.866;2022-12-11T02:23:32;13.6;;;6.5;;
28455;SDS011;15682;56.742;38.866;2022-12-11T02:25:25;12.7;;;6.4;;
28455;SDS011;15682;56.742;38.866;2022-12-11T02:27:28;13.9;;;6.8;;
28455;SDS011;15682;56.742;38.866;2022-12-11T02:29:25;13.3;;;6.5;;
28455;SDS011;15682;56.742;38.866;2022-12-11T02:31:26;15.2;;;6.4;;
28455;SDS011;15682;56.742;38.866;2022-12-11T02:33:28;15.0;;;6.8;;
28455;SDS011;15682;56.742;38.866;2022-12-11T02:35:25;14.8;;;7.2;;
28455;SDS011;15682;56.742;38.866;2022-12-11T02:37:24;13.9;;;6.8;;
28455;SDS011;15682;56.742;38.866;2022-12-11T02:39:23;15.0;;;6.6;;
28455;SDS011;15682;56.742;38.866;2022-12-11T02:41:23;13.7;;;6.9;;
28455;SDS011;15682;56.742;38.866;2022-12-11T02:43:23;13.6;;;6.1;;
28455;SDS011;15682;56.742;38.866;2022-12-11T02:45:23;12.7;;;6.5;;
28455;SDS011;15682;56.742;38.866;2022-12-11T02:47:23;14.4;;;6.4;;
28455;SDS011;15682;56.742;38.866;2022-12-11T02:49:23;13.4;;;6.5;;
28455;SDS011;15682;56.742;38.866;2022-12-11T02:51:24;14.2;;;6.8;;
28455;SDS011;15682;56.742;38.866;2022-12-11T02:53:23;12.3;;;6.7;;
28455;SDS011;15682;56.742;38.866;2022-12-11T02:55:22;13.2;;;6.7;;
28455;SDS011;15682;56.742;38.866;2022-12-11T02:57:24;17.8;;;7.0;;
28455;SDS011;15682;56.742;38.866;2022-12-11T02:59:23;14.4;;;6.9;;
28455;SDS011;15682;56.742;38.866;2022-12-11T03:01:22;13.9;;;6.8;;
28455;SDS011;15682;56.742;38.866;2022-12-11T03:03:22;13.5;;;6.1;;
28455;SDS011;15682;56.742;38.866;2022-12-11T03:05:22;15.1;;;6.9;;
28455;SDS011;15682;56.742;38.866;2022-12-11T03:07:23;14.8;;;6.8;;
28455;SDS011;15682;56.742;38.866;2022-12-11T03:09:22;16.8;;;6.6;;
28455;SDS011;15682;56.742;38.866;2022-12-11T03:11:21;13.8;;;7.1;;
28455;SDS011;15682;56.742;38.866;2022-12-11T03:13:21;13.9;;;6.3;;
28455;SDS011;15682;56.742;38.866;2022-12-11T03:15:22;13.4;;;6.7;;
28455;SDS011;15682;56.742;38.866;2022-12-11T03:17:21;13.8;;;6.4;;
28455;SDS011;15682;56.742;38.866;2022-12-11T03:19:23;13.3;;;6.8;;
28455;SDS011;15682;56.742;38.866;2022-12-11T03:21:23;13.2;;;6.6;;
28455;SDS011;15682;56.742;38.866;2022-12-11T03:23:22;12.7;;;6.7;;
28455;SDS011;15682;56.742;38.866;2022-12-11T03:25:21;12.7;;;6.4;;
28455;SDS011;15682;56.742;38.866;2022-12-11T03:27:22;13.9;;;6.4;;
28455;SDS011;15682;56.742;38.866;2022-12-11T03:29:22;11.9;;;6.2;;
28455;SDS011;15682;56.742;38.866;2022-12-11T03:31:21;13.9;;;7.1;;
28455;SDS011;15682;56.742;38.866;2022-12-11T03:33:21;13.0;;;6.0;;
28455;SDS011;15682;56.742;38.866;2022-12-11T03:35:21;13.9;;;5.8;;
28455;SDS011;15682;56.742;38.866;2022-12-11T03:37:20;13.9;;;6.2;;
28455;SDS011;15682;56.742;38.866;2022-12-11T03:39:20;13.5;;;6.6;;
28455;SDS011;15682;56.742;38.866;2022-12-11T03:41:21;11.3;;;5.5;;
28455;SDS011;15682;56.742;38.866;2022-12-11T03:43:20;13.2;;;6.5;;
28455;SDS011;15682;56.742;38.866;2022-12-11T03:45:19;13.6;;;6.5;;
28455;SDS011;15682;56.742;38.866;2022-12-11T03:47:20;15.6;;;7.4;;
28455;SDS011;15682;56.742;38.866;2022-12-11T03:49:20;13.5;;;6.5;;
28455;SDS011;15682;56.742;38.866;2022-12-11T03:51:19;15.2;;;6.6;;
28455;SDS011;15682;56.742;38.866;2022-12-11T03:53:19;14.2;;;6.5;;
28455;SDS011;15682;56.742;38.866;2022-12-11T03:55:19;13.0;;;6.4;;
28455;SDS011;15682;56.742;38.866;2022-12-11T03:57:20;13.0;;;6.1;;
28455;SDS011;15682;56.742;38.866;2022-12-11T03:59:18;13.9;;;6.9;;
28455;SDS011;15682;56.742;38.866;2022-12-11T04:01:18;13.1;;;6.0;;
28455;SDS011;15682;56.742;38.866;2022-12-11T04:03:18;14.4;;;6.5;;
28455;SDS011;15682;56.742;38.866;2022-12-11T04:05:18;13.4;;;6.7;;
28455;SDS011;15682;56.742;38.866;2022-12-11T04:07:18;15.2;;;7.0;;
28455;SDS011;15682;56.742;38.866;2022-12-11T04:09:18;14.1;;;6.7;;
28455;SDS011;15682;56.742;38.866;2022-12-11T04:11:18;17.9;;;6.7;;
28455;SDS011;15682;56.742;38.866;2022-12-11T04:13:18;15.2;;;7.2;;
28455;SDS011;15682;56.742;38.866;2022-12-11T04:15:17;13.8;;;7.2;;
28455;SDS011;15682;56.742;38.866;2022-12-11T04:17:18;13.3;;;6.9;;
28455;SDS011;15682;56.742;38.866;2022-12-11T04:19:17;13.1;;;6.5;;
28455;SDS011;15682;56.742;38.866;2022-12-11T04:21:17;13.6;;;6.8;;
28455;SDS011;15682;56.742;38.866;2022-12-11T04:23:17;13.0;;;7.1;;
28455;SDS011;15682;56.742;38.866;2022-12-11T04:25:17;13.0;;;6.6;;
28455;SDS011;15682;56.742;38.866;2022-12-11T04:27:17;13.9;;;7.0;;
28455;SDS011;15682;56.742;38.866;2022-12-11T04:29:17;15.7;;;7.0;;
28455;SDS011;15682;56.742;38.866;2022-12-11T04:31:17;15.2;;;7.1;;
28455;SDS011;15682;56.742;38.866;2022-12-11T04:33:16;15.3;;;7.5;;
28455;SDS011;15682;56.742;38.866;2022-12-11T04:35:16;15.4;;;7.1;;
28455;SDS011;15682;56.742;38.866;2022-12-11T04:37:16;16.6;;;7.7;;
28455;SDS011;15682;56.742;38.866;2022-12-11T04:39:16;14.6;;;7.3;;
28455;SDS011;15682;56.742;38.866;2022-12-11T04:41:16;14.3;;;7.2;;
28455;SDS011;15682;56.742;38.866;2022-12-11T04:43:16;14.8;;;7.6;;
28455;SDS011;15682;56.742;38.866;2022-12-11T04:45:16;13.3;;;7.0;;
28455;SDS011;15682;56.742;38.866;2022-12-11T04:47:15;15.0;;;7.5;;
28455;SDS011;15682;56.742;38.866;2022-12-11T04:49:15;15.3;;;7.2;;
28455;SDS011;15682;56.742;38.866;2022-12-11T04:51:15;15.8;;;7.4;;
28455;SDS011;15682;56.742;38.866;2022-12-11T04:53:15;17.5;;;7.5;;
28455;SDS011;15682;56.742;38.866;2022-12-11T04:55:15;17.2;;;7.8;;
28455;SDS011;15682;56.742;38.866;2022-12-11T04:57:15;16.9;;;7.7;;
28455;SDS011;15682;56.742;38.866;2022-12-11T04:59:15;16.2;;;8.5;;
28455;SDS011;15682;56.742;38.866;2022-12-11T05:01:15;15.7;;;7.7;;
28455;SDS011;15682;56.742;38.866;2022-12-11T05:03:14;15.5;;;7.2;;
28455;SDS011;15682;56.742;38.866;2022-12-11T05:05:14;16.2;;;7.8;;
28455;SDS011;15682;56.742;38.866;2022-12-11T05:07:14;17.5;;;8.3;;
28455;SDS011;15682;56.742;38.866;2022-12-11T05:09:14;16.5;;;8.0;;
28455;SDS011;15682;56.742;38.866;2022-12-11T05:11:14;17.2;;;7.8;;
28455;SDS011;15682;56.742;38.866;2022-12-11T05:13:14;17.1;;;8.5;;
28455;SDS011;15682;56.742;38.866;2022-12-11T05:15:14;16.3;;;8.3;;
28455;SDS011;15682;56.742;38.866;2022-12-11T05:17:13;17.1;;;8.2;;
28455;SDS011;15682;56.742;38.866;2022-12-11T05:19:13;17.2;;;8.4;;
28455;SDS011;15682;56.742;38.866;2022-12-11T05:21:13;18.3;;;8.7;;
28455;SDS011;15682;56.742;38.866;2022-12-11T05:23:13;20.2;;;8.6;;
28455;SDS011;15682;56.742;38.866;2022-12-11T05:25:13;18.2;;;8.3;;
28455;SDS011;15682;56.742;38.866;2022-12-11T05:27:13;15.4;;;8.0;;
28455;SDS011;15682;56.742;38.866;2022-12-11T05:29:13;18.5;;;8.8;;
28455;SDS011;15682;56.742;38.866;2022-12-11T05:31:14;19.4;;;9.6;;
28455;SDS011;15682;56.742;38.866;2022-12-11T05:33:12;20.3;;;9.3;;
28455;SDS011;15682;56.742;38.866;2022-12-11T05:35:12;19.5;;;9.4;;
28455;SDS011;15682;56.742;38.866;2022-12-11T05:37:12;18.9;;;9.3;;
28455;SDS011;15682;56.742;38.866;2022-12-11T05:39:12;17.5;;;8.8;;
28455;SDS011;15682;56.742;38.866;2022-12-11T05:41:14;20.6;;;9.8;;
28455;SDS011;15682;56.742;38.866;2022-12-11T05:43:12;21.7;;;9.5;;
28455;SDS011;15682;56.742;38.866;2022-12-11T05:45:12;22.4;;;10.4;;
28455;SDS011;15682;56.742;38.866;2022-12-11T05:47:11;22.0;;;10.3;;
28455;SDS011;15682;56.742;38.866;2022-12-11T05:49:11;21.0;;;9.9;;
28455;SDS011;15682;56.742;38.866;2022-12-11T05:51:11;24.2;;;10.4;;
28455;SDS011;15682;56.742;38.866;2022-12-11T05:53:12;22.6;;;9.6;;
28455;SDS011;15682;56.742;38.866;2022-12-11T05:55:11;23.4;;;10.7;;
28455;SDS011;15682;56.742;38.866;2022-12-11T05:57:11;22.8;;;10.1;;
28455;SDS011;15682;56.742;38.866;2022-12-11T05:59:11;21.1;;;10.6;;
28455;SDS011;15682;56.742;38.866;2022-12-11T06:01:12;21.5;;;10.3;;
28455;SDS011;15682;56.742;38.866;2022-12-11T06:03:10;24.6;;;11.4;;
28455;SDS011;15682;56.742;38.866;2022-12-11T06:05:10;20.8;;;10.1;;
28455;SDS011;15682;56.742;38.866;2022-12-11T06:07:10;22.7;;;10.2;;
28455;SDS011;15682;56.742;38.866;2022-12-11T06:09:11;23.9;;;10.7;;
28455;SDS011;15682;56.742;38.866;2022-12-11T06:11:10;21.1;;;10.0;;
28455;SDS011;15682;56.742;38.866;2022-12-11T06:13:10;23.2;;;10.8;;
28455;SDS011;15682;56.742;38.866;2022-12-11T06:15:10;22.8;;;10.7;;
28455;SDS011;15682;56.742;38.866;2022-12-11T06:17:09;23.4;;;11.5;;
28455;SDS011;15682;56.742;38.866;2022-12-11T06:19:12;21.7;;;10.6;;
28455;SDS011;15682;56.742;38.866;2022-12-11T06:21:10;23.4;;;11.1;;
28455;SDS011;15682;56.742;38.866;2022-12-11T06:23:09;20.5;;;10.3;;
28455;SDS011;15682;56.742;38.866;2022-12-11T06:25:09;20.4;;;10.5;;
28455;SDS011;15682;56.742;38.866;2022-12-11T06:27:09;21.9;;;10.2;;
28455;SDS011;15682;56.742;38.866;2022-12-11T06:29:09;22.9;;;10.5;;
28455;SDS011;15682;56.742;38.866;2022-12-11T06:31:09;22.0;;;10.5;;
28455;SDS011;15682;56.742;38.866;2022-12-11T06:33:08;23.3;;;11.1;;
28455;SDS011;15682;56.742;38.866;2022-12-11T06:35:08;23.0;;;11.3;;
28455;SDS011;15682;56.742;38.866;2022-12-11T06:37:08;39.9;;;13.5;;
28455;SDS011;15682;56.742;38.866;2022-12-11T06:39:08;21.8;;;11.4;;
28455;SDS011;15682;56.742;38.866;2022-12-11T06:41:08;24.2;;;10.9;;
28455;SDS011;15682;56.742;38.866;2022-12-11T06:43:08;22.6;;;10.9;;
28455;SDS011;15682;56.742;38.866;2022-12-11T06:45:08;24.8;;;11.9;;
28455;SDS011;15682;56.742;38.866;2022-12-11T06:47:07;22.0;;;11.4;;
28455;SDS011;15682;56.742;38.866;2022-12-11T06:49:07;21.4;;;10.9;;
28455;SDS011;15682;56.742;38.866;2022-12-11T06:51:08;26.0;;;11.1;;
28455;SDS011;15682;56.742;38.866;2022-12-11T06:53:08;25.9;;;11.4;;
28455;SDS011;15682;56.742;38.866;2022-12-11T06:55:07;25.4;;;11.8;;
28455;SDS011;15682;56.742;38.866;2022-12-11T06:57:07;24.5;;;11.3;;
28455;SDS011;15682;56.742;38.866;2022-12-11T06:59:09;23.2;;;11.1;;
28455;SDS011;15682;56.742;38.866;2022-12-11T07:01:12;23.7;;;11.5;;
28455;SDS011;15682;56.742;38.866;2022-12-11T07:03:06;24.1;;;11.4;;
28455;SDS011;15682;56.742;38.866;2022-12-11T07:05:06;25.2;;;11.7;;
28455;SDS011;15682;56.742;38.866;2022-12-11T07:07:06;28.1;;;13.4;;
28455;SDS011;15682;56.742;38.866;2022-12-11T07:09:06;25.1;;;12.0;;
28455;SDS011;15682;56.742;38.866;2022-12-11T07:11:07;27.1;;;11.9;;
28455;SDS011;15682;56.742;38.866;2022-12-11T07:13:06;20.6;;;11.0;;
28455;SDS011;15682;56.742;38.866;2022-12-11T07:15:06;24.4;;;11.8;;
28455;SDS011;15682;56.742;38.866;2022-12-11T07:17:05;22.8;;;11.8;;
28455;SDS011;15682;56.742;38.866;2022-12-11T07:19:05;24.4;;;12.1;;
28455;SDS011;15682;56.742;38.866;2022-12-11T07:21:05;23.0;;;11.7;;
28455;SDS011;15682;56.742;38.866;2022-12-11T07:23:05;23.4;;;11.0;;
28455;SDS011;15682;56.742;38.866;2022-12-11T07:25:06;21.9;;;11.6;;
28455;SDS011;15682;56.742;38.866;2022-12-11T07:27:05;22.6;;;11.2;;
28455;SDS011;15682;56.742;38.866;2022-12-11T07:29:05;24.4;;;11.3;;
28455;SDS011;15682;56.742;38.866;2022-12-11T07:31:05;26.9;;;11.9;;
28455;SDS011;15682;56.742;38.866;2022-12-11T07:33:04;24.2;;;12.4;;
28455;SDS011;15682;56.742;38.866;2022-12-11T07:35:05;23.6;;;11.8;;
28455;SDS011;15682;56.742;38.866;2022-12-11T07:37:04;25.2;;;12.0;;
28455;SDS011;15682;56.742;38.866;2022-12-11T07:39:04;25.2;;;12.6;;
28455;SDS011;15682;56.742;38.866;2022-12-11T07:41:05;24.9;;;12.5;;
28455;SDS011;15682;56.742;38.866;2022-12-11T07:43:04;26.7;;;12.0;;
28455;SDS011;15682;56.742;38.866;2022-12-11T07:45:04;26.1;;;12.8;;
28455;SDS011;15682;56.742;38.866;2022-12-11T07:47:04;26.3;;;12.6;;
28455;SDS011;15682;56.742;38.866;2022-12-11T07:49:04;24.4;;;11.9;;
28455;SDS011;15682;56.742;38.866;2022-12-11T07:51:06;26.1;;;12.0;;
28455;SDS011;15682;56.742;38.866;2022-12-11T07:53:03;26.2;;;12.9;;
28455;SDS011;15682;56.742;38.866;2022-12-11T07:55:04;29.8;;;13.1;;
28455;SDS011;15682;56.742;38.866;2022-12-11T07:57:03;32.2;;;12.6;;
28455;SDS011;15682;56.742;38.866;2022-12-11T07:59:03;27.1;;;12.7;;
28455;SDS011;15682;56.742;38.866;2022-12-11T08:01:03;28.8;;;13.0;;
28455;SDS011;15682;56.742;38.866;2022-12-11T08:03:03;27.4;;;13.1;;
28455;SDS011;15682;56.742;38.866;2022-12-11T08:05:03;23.3;;;11.5;;
28455;SDS011;15682;56.742;38.866;2022-12-11T08:07:02;25.1;;;12.4;;
28455;SDS011;15682;56.742;38.866;2022-12-11T08:09:03;28.9;;;12.1;;
28455;SDS011;15682;56.742;38.866;2022-12-11T08:11:03;29.4;;;13.1;;
28455;SDS011;15682;56.742;38.866;2022-12-11T08:13:02;28.6;;;13.0;;
28455;SDS011;15682;56.742;38.866;2022-12-11T08:15:02;29.4;;;13.5;;
28455;SDS011;15682;56.742;38.866;2022-12-11T08:17:02;29.1;;;13.2;;
28455;SDS011;15682;56.742;38.866;2022-12-11T08:19:02;28.4;;;13.2;;
28455;SDS011;15682;56.742;38.866;2022-12-11T08:21:03;29.3;;;13.5;;
28455;SDS011;15682;56.742;38.866;2022-12-11T08:23:01;29.0;;;12.9;;
28455;SDS011;15682;56.742;38.866;2022-12-11T08:25:01;25.1;;;12.8;;
28455;SDS011;15682;56.742;38.866;2022-12-11T08:27:01;23.7;;;12.2;;
28455;SDS011;15682;56.742;38.866;2022-12-11T08:29:01;29.0;;;12.4;;
28455;SDS011;15682;56.742;38.866;2022-12-11T08:31:02;26.4;;;13.5;;
28455;SDS011;15682;56.742;38.866;2022-12-11T08:33:01;30.5;;;14.3;;
28455;SDS011;15682;56.742;38.866;2022-12-11T08:35:01;33.0;;;14.0;;
28455;SDS011;15682;56.742;38.866;2022-12-11T08:37:01;27.8;;;12.3;;
28455;SDS011;15682;56.742;38.866;2022-12-11T08:39:00;23.5;;;11.6;;
28455;SDS011;15682;56.742;38.866;2022-12-11T08:41:06;25.9;;;12.6;;
28455;SDS011;15682;56.742;38.866;2022-12-11T08:43:00;26.8;;;13.3;;
28455;SDS011;15682;56.742;38.866;2022-12-11T08:45:00;24.0;;;12.6;;
28455;SDS011;15682;56.742;38.866;2022-12-11T08:47:00;28.5;;;13.1;;
28455;SDS011;15682;56.742;38.866;2022-12-11T08:49:00;25.5;;;12.5;;
28455;SDS011;15682;56.742;38.866;2022-12-11T08:51:00;27.9;;;12.8;;
28455;SDS011;15682;56.742;38.866;2022-12-11T08:52:59;27.8;;;12.9;;
28455;SDS011;15682;56.742;38.866;2022-12-11T08:54:59;26.4;;;13.3;;
28455;SDS011;15682;56.742;38.866;2022-12-11T08:56:59;23.8;;;13.2;;
28455;SDS011;15682;56.742;38.866;2022-12-11T08:58:59;24.1;;;12.6;;
28455;SDS011;15682;56.742;38.866;2022-12-11T09:00:59;25.6;;;13.0;;
28455;SDS011;15682;56.742;38.866;2022-12-11T09:02:59;22.8;;;11.5;;
28455;SDS011;15682;56.742;38.866;2022-12-11T09:04:59;27.4;;;11.8;;
28455;SDS011;15682;56.742;38.866;2022-12-11T09:06:59;27.2;;;12.4;;
28455;SDS011;15682;56.742;38.866;2022-12-11T09:08:59;26.0;;;12.3;;
28455;SDS011;15682;56.742;38.866;2022-12-11T09:11:01;27.0;;;12.4;;
28455;SDS011;15682;56.742;38.866;2022-12-11T09:12:58;25.1;;;11.9;;
28455;SDS011;15682;56.742;38.866;2022-12-11T09:14:58;25.9;;;12.8;;
28455;SDS011;15682;56.742;38.866;2022-12-11T09:16:58;23.7;;;11.4;;
28455;SDS011;15682;56.742;38.866;2022-12-11T09:18:58;23.3;;;11.5;;
28455;SDS011;15682;56.742;38.866;2022-12-11T09:20:58;24.6;;;12.2;;
28455;SDS011;15682;56.742;38.866;2022-12-11T09:22:57;23.4;;;11.5;;
28455;SDS011;15682;56.742;38.866;2022-12-11T09:24:57;24.0;;;11.6;;
28455;SDS011;15682;56.742;38.866;2022-12-11T09:26:57;28.5;;;11.8;;
28455;SDS011;15682;56.742;38.866;2022-12-11T09:28:57;27.3;;;11.9;;
28455;SDS011;15682;56.742;38.866;2022-12-11T09:30:57;23.5;;;11.3;;
28455;SDS011;15682;56.742;38.866;2022-12-11T09:32:57;22.5;;;11.1;;
28455;SDS011;15682;56.742;38.866;2022-12-11T09:34:57;21.8;;;11.4;;
28455;SDS011;15682;56.742;38.866;2022-12-11T09:36:57;25.3;;;11.5;;
28455;SDS011;15682;56.742;38.866;2022-12-11T09:38:58;20.6;;;10.7;;
28455;SDS011;15682;56.742;38.866;2022-12-11T09:40:56;22.5;;;10.8;;
28455;SDS011;15682;56.742;38.866;2022-12-11T09:42:57;20.4;;;10.4;;
28455;SDS011;15682;56.742;38.866;2022-12-11T09:44:57;21.4;;;10.5;;
28455;SDS011;15682;56.742;38.866;2022-12-11T09:46:56;23.4;;;10.9;;
28455;SDS011;15682;56.742;38.866;2022-12-11T09:48:56;23.2;;;10.8;;
28455;SDS011;15682;56.742;38.866;2022-12-11T09:50:56;27.7;;;11.8;;
28455;SDS011;15682;56.742;38.866;2022-12-11T09:52:58;22.6;;;10.6;;
28455;SDS011;15682;56.742;38.866;2022-12-11T09:54:56;24.0;;;9.9;;
28455;SDS011;15682;56.742;38.866;2022-12-11T09:56:57;19.1;;;10.1;;
28455;SDS011;15682;56.742;38.866;2022-12-11T09:58:58;22.6;;;10.3;;
28455;SDS011;15682;56.742;38.866;2022-12-11T10:00:56;22.6;;;10.7;;
28455;SDS011;15682;56.742;38.866;2022-12-11T10:03:01;21.8;;;11.0;;
28455;SDS011;15682;56.742;38.866;2022-12-11T10:04:57;21.3;;;10.8;;
28455;SDS011;15682;56.742;38.866;2022-12-11T10:06:57;20.9;;;11.2;;
28455;SDS011;15682;56.742;38.866;2022-12-11T10:08:58;25.3;;;11.4;;
28455;SDS011;15682;56.742;38.866;2022-12-11T10:10:56;22.4;;;11.0;;
28455;SDS011;15682;56.742;38.866;2022-12-11T10:12:56;24.3;;;12.1;;
28455;SDS011;15682;56.742;38.866;2022-12-11T10:14:57;21.7;;;10.9;;
28455;SDS011;15682;56.742;38.866;2022-12-11T10:16:56;23.7;;;11.3;;
28455;SDS011;15682;56.742;38.866;2022-12-11T10:18:54;21.8;;;10.5;;
28455;SDS011;15682;56.742;38.866;2022-12-11T10:20:54;23.9;;;11.6;;
28455;SDS011;15682;56.742;38.866;2022-12-11T10:22:54;24.8;;;12.2;;
28455;SDS011;15682;56.742;38.866;2022-12-11T10:24:54;23.1;;;11.9;;
28455;SDS011;15682;56.742;38.866;2022-12-11T10:26:54;22.8;;;11.1;;
28455;SDS011;15682;56.742;38.866;2022-12-11T10:28:53;25.3;;;12.1;;
28455;SDS011;15682;56.742;38.866;2022-12-11T10:30:55;22.1;;;11.8;;
28455;SDS011;15682;56.742;38.866;2022-12-11T10:32:55;23.4;;;12.4;;
28455;SDS011;15682;56.742;38.866;2022-12-11T10:34:54;24.8;;;12.6;;
28455;SDS011;15682;56.742;38.866;2022-12-11T10:36:53;24.3;;;11.6;;
28455;SDS011;15682;56.742;38.866;2022-12-11T10:38:53;25.0;;;12.0;;
28455;SDS011;15682;56.742;38.866;2022-12-11T10:40:54;28.0;;;12.4;;
28455;SDS011;15682;56.742;38.866;2022-12-11T10:42:53;22.2;;;11.4;;
28455;SDS011;15682;56.742;38.866;2022-12-11T10:44:54;23.2;;;11.5;;
28455;SDS011;15682;56.742;38.866;2022-12-11T10:47:01;24.9;;;12.4;;
28455;SDS011;15682;56.742;38.866;2022-12-11T10:48:52;26.4;;;13.0;;
28455;SDS011;15682;56.742;38.866;2022-12-11T10:50:56;25.8;;;13.0;;
28455;SDS011;15682;56.742;38.866;2022-12-11T10:52:52;28.8;;;14.6;;
28455;SDS011;15682;56.742;38.866;2022-12-11T10:54:54;31.1;;;14.7;;
28455;SDS011;15682;56.742;38.866;2022-12-11T10:56:52;30.1;;;14.7;;
28455;SDS011;15682;56.742;38.866;2022-12-11T10:58:52;32.9;;;14.3;;
28455;SDS011;15682;56.742;38.866;2022-12-11T11:00:59;28.8;;;13.2;;
28455;SDS011;15682;56.742;38.866;2022-12-11T11:02:51;26.0;;;12.8;;
28455;SDS011;15682;56.742;38.866;2022-12-11T11:04:51;28.8;;;13.4;;
28455;SDS011;15682;56.742;38.866;2022-12-11T11:06:59;27.0;;;12.5;;
28455;SDS011;15682;56.742;38.866;2022-12-11T11:08:52;28.0;;;13.9;;
28455;SDS011;15682;56.742;38.866;2022-12-11T11:10:52;26.5;;;13.2;;
28455;SDS011;15682;56.742;38.866;2022-12-11T11:12:54;27.1;;;13.1;;
28455;SDS011;15682;56.742;38.866;2022-12-11T11:14:59;30.2;;;13.6;;
28455;SDS011;15682;56.742;38.866;2022-12-11T11:16:51;28.1;;;13.9;;
28455;SDS011;15682;56.742;38.866;2022-12-11T11:18:52;25.7;;;13.6;;
28455;SDS011;15682;56.742;38.866;2022-12-11T11:20:50;28.1;;;14.3;;
28455;SDS011;15682;56.742;38.866;2022-12-11T11:22:52;28.8;;;13.1;;
28455;SDS011;15682;56.742;38.866;2022-12-11T11:24:51;31.3;;;14.5;;
28455;SDS011;15682;56.742;38.866;2022-12-11T11:26:50;28.4;;;13.0;;
28455;SDS011;15682;56.742;38.866;2022-12-11T11:28:51;27.6;;;13.1;;
28455;SDS011;15682;56.742;38.866;2022-12-11T11:30:58;23.8;;;12.0;;
28455;SDS011;15682;56.742;38.866;2022-12-11T11:32:50;25.1;;;12.1;;
28455;SDS011;15682;56.742;38.866;2022-12-11T11:34:49;24.0;;;12.6;;
28455;SDS011;15682;56.742;38.866;2022-12-11T11:36:54;26.0;;;13.3;;
28455;SDS011;15682;56.742;38.866;2022-12-11T11:38:51;30.4;;;14.5;;
28455;SDS011;15682;56.742;38.866;2022-12-11T11:40:51;30.6;;;14.0;;
28455;SDS011;15682;56.742;38.866;2022-12-11T11:42:51;30.9;;;15.7;;
28455;SDS011;15682;56.742;38.866;2022-12-11T11:44:50;27.6;;;14.6;;
28455;SDS011;15682;56.742;38.866;2022-12-11T11:46:52;25.7;;;12.3;;
28455;SDS011;15682;56.742;38.866;2022-12-11T11:48:50;29.8;;;13.6;;
28455;SDS011;15682;56.742;38.866;2022-12-11T11:50:48;29.7;;;13.5;;
28455;SDS011;15682;56.742;38.866;2022-12-11T11:52:49;28.3;;;14.1;;
28455;SDS011;15682;56.742;38.866;2022-12-11T11:54:49;30.0;;;13.7;;
28455;SDS011;15682;56.742;38.866;2022-12-11T11:56:48;28.7;;;13.2;;